createdAt,value
2022-11-01T00:04:19.190Z,84.45
2022-11-01T00:09:21.832Z,84.18
2022-11-01T00:14:24.530Z,84.77
2022-11-01T00:19:27.849Z,84.23
2022-11-01T00:24:31.696Z,84.23
2022-11-01T00:29:34.271Z,84.71
2022-11-01T00:34:37.229Z,84.73
2022-11-01T00:39:39.844Z,83.96
2022-11-01T00:44:42.387Z,84.06
2022-11-01T00:49:45.015Z,84.70
2022-11-01T00:54:47.561Z,84.38
2022-11-01T00:59:50.193Z,84.15
2022-11-01T01:04:52.799Z,83.51
2022-11-01T01:09:55.375Z,83.31
2022-11-01T01:14:58.459Z,82.03
2022-11-01T01:20:02.686Z,81.04
2022-11-01T01:25:06.049Z,80.45
2022-11-01T01:30:09.468Z,79.84
2022-11-01T01:35:12.031Z,80.20
2022-11-01T01:40:14.601Z,80.08
2022-11-01T01:45:35.163Z,80.20
2022-11-01T01:50:47.275Z,80.29
2022-11-01T01:56:00.478Z,79.97
2022-11-01T02:01:03.197Z,79.74
2022-11-01T02:06:13.777Z,79.61
2022-11-01T02:11:17.879Z,79.18
2022-11-01T02:16:44.273Z,79.45
2022-11-01T02:22:09.631Z,80.10
2022-11-01T02:27:21.481Z,80.19
2022-11-01T02:32:29.815Z,80.13
2022-11-01T02:37:49.435Z,80.71
2022-11-01T02:43:01.284Z,80.59
2022-11-01T02:48:06.730Z,80.06
2022-11-01T02:53:10.149Z,80.47
2022-11-01T02:58:22.423Z,80.10
2022-11-01T03:03:29.823Z,80.11
2022-11-01T03:08:51.987Z,79.95
2022-11-01T03:14:06.736Z,79.80
2022-11-01T03:19:46.528Z,78.78
2022-11-01T03:24:55.295Z,78.72
2022-11-01T03:30:10.302Z,79.30
2022-11-01T03:35:18.757Z,79.52
2022-11-01T03:40:25.222Z,78.53
2022-11-01T03:45:30.589Z,78.69
2022-11-01T03:50:34.346Z,78.71
2022-11-01T03:55:36.976Z,78.64
2022-11-01T04:00:42.497Z,78.74
2022-11-01T04:05:45.153Z,78.95
2022-11-01T04:10:47.653Z,78.53
2022-11-01T04:16:08.898Z,78.95
2022-11-01T04:21:19.248Z,79.02
2022-11-01T04:26:23.365Z,79.07
2022-11-01T04:31:36.948Z,79.02
2022-11-01T04:36:39.475Z,78.67
2022-11-01T04:41:42.026Z,78.66
2022-11-01T04:46:44.554Z,78.73
2022-11-01T04:51:47.591Z,78.85
2022-11-01T04:56:50.146Z,78.96
2022-11-01T05:01:52.859Z,78.45
2022-11-01T05:06:55.506Z,79.12
2022-11-01T05:11:58.019Z,78.53
2022-11-01T05:17:00.975Z,78.83
2022-11-01T05:22:04.422Z,79.12
2022-11-01T05:27:07.293Z,79.00
2022-11-01T05:32:10.082Z,78.57
2022-11-01T05:37:12.747Z,79.28
2022-11-01T05:42:15.327Z,78.91
2022-11-01T05:47:17.948Z,78.83
2022-11-01T05:52:20.995Z,78.82
2022-11-01T05:57:23.541Z,79.11
2022-11-01T06:02:26.172Z,79.00
2022-11-01T06:07:29.146Z,78.92
2022-11-01T06:12:31.708Z,78.53
2022-11-01T06:17:34.329Z,78.28
2022-11-01T06:22:36.954Z,78.74
2022-11-01T06:27:40.829Z,78.18
2022-11-01T06:32:43.549Z,78.77
2022-11-01T06:37:47.395Z,78.97
2022-11-01T06:42:49.982Z,78.15
2022-11-01T06:47:53.005Z,78.11
2022-11-01T06:53:00.329Z,77.74
2022-11-01T06:58:06.676Z,77.69
2022-11-01T07:03:12.819Z,77.83
2022-11-01T07:08:15.487Z,77.41
2022-11-01T07:13:18.293Z,77.67
2022-11-01T07:18:20.854Z,77.61
2022-11-01T07:23:23.708Z,77.42
2022-11-01T07:28:26.509Z,77.14
2022-11-01T07:33:29.027Z,77.25
2022-11-01T07:38:32.975Z,76.67
2022-11-01T07:43:36.830Z,76.72
2022-11-01T07:48:39.410Z,76.07
2022-11-01T07:53:42.396Z,76.10
2022-11-01T07:58:44.966Z,76.04
2022-11-01T08:03:49.367Z,75.69
2022-11-01T08:08:52.016Z,76.07
2022-11-01T08:13:57.844Z,75.61
2022-11-01T08:19:03.334Z,75.02
2022-11-01T08:24:06.030Z,74.80
2022-11-01T08:29:09.470Z,74.86
2022-11-01T08:34:16.024Z,74.50
2022-11-01T08:39:19.882Z,74.07
2022-11-01T08:44:22.383Z,72.97
2022-11-01T08:49:24.998Z,72.67
2022-11-01T08:54:27.517Z,72.02
2022-11-01T08:59:30.207Z,72.67
2022-11-01T09:04:46.979Z,72.28
2022-11-01T09:09:56.767Z,71.24
2022-11-01T09:14:59.548Z,71.23
2022-11-01T09:20:02.433Z,69.94
2022-11-01T09:25:06.269Z,69.77
2022-11-01T09:30:09.571Z,69.22
2022-11-01T09:35:12.847Z,68.47
2022-11-01T09:40:16.374Z,68.33
2022-11-01T09:45:22.909Z,68.49
2022-11-01T09:50:30.334Z,68.34
2022-11-01T09:56:12.536Z,68.23
2022-11-01T10:01:52.711Z,68.13
2022-11-01T10:07:01.253Z,68.24
2022-11-01T10:12:21.516Z,67.81
2022-11-01T10:18:02.443Z,66.39
2022-11-01T10:23:06.115Z,67.50
2022-11-01T10:28:21.103Z,67.31
2022-11-01T10:33:27.384Z,67.27
2022-11-01T10:44:21.481Z,67.55
2022-11-01T10:49:46.160Z,67.52
2022-11-01T10:54:55.970Z,66.90
2022-11-01T11:00:01.678Z,66.62
2022-11-01T11:05:05.869Z,66.82
2022-11-01T11:10:24.961Z,66.87
2022-11-01T11:15:44.055Z,67.38
2022-11-01T11:20:55.627Z,67.62
2022-11-01T11:26:16.775Z,67.06
2022-11-01T11:31:31.691Z,67.74
2022-11-01T11:36:38.120Z,67.97
2022-11-01T11:41:42.005Z,67.95
2022-11-01T11:46:57.739Z,68.13
2022-11-01T11:52:00.455Z,68.44
2022-11-01T11:57:12.043Z,68.67
2022-11-01T12:02:36.644Z,67.93
2022-11-01T12:07:54.509Z,68.57
2022-11-01T12:12:57.223Z,69.40
2022-11-01T12:18:19.456Z,69.17
2022-11-01T12:23:27.376Z,69.22
2022-11-01T12:28:38.027Z,69.43
2022-11-01T12:33:51.891Z,69.42
2022-11-01T12:39:13.843Z,69.88
2022-11-01T12:44:22.705Z,69.74
2022-11-01T12:49:39.453Z,69.18
2022-11-01T12:55:16.576Z,69.00
2022-11-01T13:00:27.030Z,68.92
2022-11-01T13:05:49.258Z,69.45
2022-11-01T13:10:52.949Z,69.55
2022-11-01T13:16:04.990Z,69.79
2022-11-01T13:21:40.815Z,69.62
2022-11-01T13:26:56.959Z,69.62
2022-11-01T13:32:17.878Z,70.09
2022-11-01T13:37:36.746Z,69.75
2022-11-01T13:43:07.487Z,70.04
2022-11-01T13:48:09.899Z,69.83
2022-11-01T13:53:28.404Z,70.40
2022-11-01T13:58:32.823Z,70.20
2022-11-01T14:03:35.731Z,70.63
2022-11-01T14:08:43.945Z,70.93
2022-11-01T14:13:47.794Z,70.87
2022-11-01T14:19:06.480Z,70.75
2022-11-01T14:24:18.659Z,71.70
2022-11-01T14:29:21.311Z,70.93
2022-11-01T14:34:28.766Z,70.72
2022-11-01T14:39:55.978Z,71.41
2022-11-01T14:45:00.538Z,71.12
2022-11-01T14:50:16.840Z,71.75
2022-11-01T14:55:25.316Z,71.11
2022-11-01T15:00:30.485Z,71.28
2022-11-01T15:05:33.115Z,71.29
2022-11-01T15:10:42.436Z,72.00
2022-11-01T15:15:56.613Z,72.25
2022-11-01T15:21:00.988Z,72.50
2022-11-01T15:26:10.249Z,72.12
2022-11-01T15:31:12.937Z,71.76
2022-11-01T15:36:26.970Z,72.58
2022-11-01T15:41:34.589Z,72.09
2022-11-01T15:46:41.071Z,72.20
2022-11-01T15:51:50.706Z,72.79
2022-11-01T15:56:55.556Z,72.39
2022-11-01T16:02:01.145Z,72.33
2022-11-01T16:07:07.227Z,71.92
2022-11-01T16:12:25.959Z,72.26
2022-11-01T16:17:40.947Z,72.39
2022-11-01T16:22:43.450Z,72.73
2022-11-01T16:28:05.214Z,73.10
2022-11-01T16:33:44.256Z,72.31
2022-11-01T16:38:47.732Z,73.25
2022-11-01T16:43:56.096Z,72.73
2022-11-01T16:49:16.705Z,72.52
2022-11-01T16:54:19.254Z,72.68
2022-11-01T16:59:33.767Z,73.00
2022-11-01T17:04:40.170Z,72.20
2022-11-01T17:09:42.727Z,72.55
2022-11-01T17:14:45.903Z,72.69
2022-11-01T17:19:54.088Z,72.56
2022-11-01T17:24:57.047Z,73.18
2022-11-01T17:29:59.729Z,73.39
2022-11-01T17:35:02.395Z,72.89
2022-11-01T17:40:19.051Z,72.90
2022-11-01T17:45:22.923Z,72.45
2022-11-01T17:50:25.596Z,72.28
2022-11-01T17:55:28.138Z,73.00
2022-11-01T18:00:31.281Z,72.67
2022-11-01T18:05:36.625Z,73.56
2022-11-01T18:10:58.114Z,73.75
2022-11-01T18:16:12.862Z,73.37
2022-11-01T18:21:26.165Z,73.60
2022-11-01T18:26:31.609Z,74.04
2022-11-01T18:31:40.613Z,74.25
2022-11-01T18:36:52.476Z,74.33
2022-11-01T18:41:55.300Z,74.93
2022-11-01T18:47:02.665Z,74.53
2022-11-01T18:52:11.661Z,75.31
2022-11-01T18:57:17.343Z,74.98
2022-11-01T19:02:23.589Z,74.67
2022-11-01T19:07:44.477Z,74.60
2022-11-01T19:12:56.410Z,74.15
2022-11-01T19:18:03.401Z,74.20
2022-11-01T19:23:20.216Z,73.87
2022-11-01T19:28:37.632Z,74.14
2022-11-01T19:33:43.981Z,74.53
2022-11-01T19:38:48.192Z,74.22
2022-11-01T19:43:51.654Z,74.22
2022-11-01T19:48:55.198Z,74.32
2022-11-01T19:54:00.119Z,74.33
2022-11-01T19:59:04.876Z,74.12
2022-11-01T20:04:15.944Z,73.86
2022-11-01T20:09:25.373Z,74.38
2022-11-01T20:14:29.041Z,74.63
2022-11-01T20:19:31.804Z,75.13
2022-11-01T20:24:34.691Z,74.78
2022-11-01T20:29:37.298Z,74.55
2022-11-01T20:34:40.094Z,74.50
2022-11-01T20:39:42.666Z,74.52
2022-11-01T20:44:45.262Z,74.40
2022-11-01T20:49:47.839Z,74.60
2022-11-01T20:54:50.442Z,74.33
2022-11-01T20:59:55.793Z,73.92
2022-11-01T21:05:26.165Z,74.23
2022-11-01T21:10:42.905Z,73.64
2022-11-01T21:15:46.452Z,74.14
2022-11-01T21:20:49.510Z,73.62
2022-11-01T21:25:58.203Z,73.95
2022-11-01T21:31:28.758Z,73.85
2022-11-01T21:36:39.531Z,73.76
2022-11-01T21:41:45.251Z,74.50
2022-11-01T21:46:53.710Z,74.00
2022-11-01T21:52:00.491Z,74.92
2022-11-01T21:57:05.221Z,75.41
2022-11-01T22:02:11.225Z,75.72
2022-11-01T22:07:14.103Z,75.71
2022-11-01T22:12:17.180Z,76.26
2022-11-01T22:17:20.315Z,76.13
2022-11-01T22:22:22.837Z,75.65
2022-11-01T22:27:25.787Z,75.71
2022-11-01T22:32:29.390Z,74.86
2022-11-01T22:37:35.386Z,75.27
2022-11-01T22:42:38.077Z,74.88
2022-11-01T22:47:40.669Z,75.11
2022-11-01T22:52:44.418Z,75.15
2022-11-01T22:58:27.958Z,75.04
2022-11-01T23:03:40.849Z,74.84
2022-11-01T23:08:43.425Z,74.85
2022-11-01T23:14:04.465Z,75.42
2022-11-01T23:19:11.520Z,74.96
2022-11-01T23:24:14.230Z,75.13
2022-11-01T23:29:16.817Z,75.79
2022-11-01T23:34:19.476Z,75.85
2022-11-01T23:39:24.679Z,76.30
2022-11-01T23:44:30.068Z,75.88
2022-11-01T23:49:34.508Z,75.85
2022-11-01T23:54:43.124Z,75.58
2022-11-01T23:59:47.303Z,75.70
